Flight Track Log - Related Links

Times and Time Zones

All times are in EDT time to prevent confusion due to time zone crossing. See the N414MA flight status page for this flight to view local times or setup timezone preferences in your user account.

Time Position Orientation Groundspeed Altitude Reporting Facility
EDT Latitude Longitude Course Direction KTS MPH feet Rate Location/Type
Wed 03:18:21 PM 40.8317 -82.5672 253° West 118 136 3,200  Level Cleveland Center
Wed 03:19:21 PM 40.8161 -82.6106 245° Southwest 124 143 4,100 950 Climbing Cleveland Center
Wed 03:20:21 PM 40.8050 -82.6486 249° West 130 150 5,100 1,050 Climbing Cleveland Center
Wed 03:21:21 PM 40.7875 -82.6947 243° Southwest 135 155 6,200 1,050 Climbing Cleveland Center
Wed 03:22:21 PM 40.7700 -82.7408 243° Southwest 135 155 7,200 1,050 Climbing Cleveland Center
Wed 03:23:21 PM 40.7547 -82.7869 246° West 135 155 8,300 700 Climbing Cleveland Center
Wed 03:24:21 PM 40.7347 -82.8383 243° Southwest 135 155 8,600 -50 Climbing Cleveland Center
Wed 03:25:21 PM 40.7192 -82.8897 248° West 146 168 8,200 -200 Descending Cleveland Center
Wed 03:26:21 PM 40.7039 -82.9303 244° Southwest 146 168 8,200  Level Cleveland Center
Wed 03:27:21 PM 40.6883 -82.9708 243° Southwest 130 150 8,200  Level Cleveland Center
Wed 03:28:21 PM 40.6750 -83.0114 247° West 125 144 8,200  Level Cleveland Center
Wed 03:29:21 PM 40.6594 -83.0492 242° Southwest 119 137 8,200  Level Cleveland Center
Wed 03:30:21 PM 40.6461 -83.0869 245° Southwest 114 131 8,200 -150 Level Cleveland Center
Wed 03:31:21 PM 40.6331 -83.1194 242° Southwest 114 131 7,900 -111 Descending Cleveland Center
Wed 03:32:09 PM 40.6161 -83.1475 231° Southwest 126 145 8,000  Climbing Indianapolis Center
Wed 03:33:11 PM 40.5878 -83.1869 227° Southwest 140 161 7,900 -48 Descending Indianapolis Center
Wed 03:34:13 PM 40.5556 -83.2361 229° Southwest 170 196 7,900 -629 Level Indianapolis Center
Wed 03:35:15 PM 40.5131 -83.3042 231° Southwest 204 235 6,600 -1,047 Descending Indianapolis Center
Wed 03:35:39 PM 40.4989 -83.3319 236° Southwest 200 230 6,400 -581 Descending Indianapolis Center
Wed 03:36:17 PM 40.4775 -83.3631 228° Southwest 204 235 6,000 -240 Descending Indianapolis Center
Wed 03:37:19 PM 40.4422 -83.4103 226° Southwest 182 209 6,000 77 Level Indianapolis Center
Wed 03:37:35 PM 40.4297 -83.4222 216° Southwest 169 194 6,100  Climbing Indianapolis Center
Wed 03:38:21 PM 40.4033 -83.4467 215° Southwest 172 198 6,000  Descending Indianapolis Center
Wed 03:39:23 PM 40.3664 -83.4864 219° Southwest 171 197 6,100 44 Climbing Indianapolis Center
Wed 03:40:37 PM 40.3303 -83.5494 233° Southwest 163 188 6,100  Level Indianapolis Center
Wed 03:41:28 PM 40.3119 -83.5839 235° Southwest 165 190 6,100 -53 Level Indianapolis Center
Wed 03:42:30 PM 40.2775 -83.6389 231° Southwest 166 191 6,000  Descending Indianapolis Center
Wed 03:42:45 PM 40.2706 -83.6514 234° Southwest 161 185 6,100 97 Climbing Indianapolis Center
Wed 03:43:32 PM 40.2475 -83.6856 229° Southwest 166 191 6,100 -55 Level Indianapolis Center
Wed 03:44:34 PM 40.2181 -83.7317 230° Southwest 166 191 6,000 -48 Descending Indianapolis Center
Wed 03:45:36 PM 40.1881 -83.7767 229° Southwest 164 189 6,000 44 Level Indianapolis Center
Wed 03:46:49 PM 40.1619 -83.8453 244° Southwest 158 182 6,100 47 Climbing Indianapolis Center
Wed 03:47:44 PM 40.1494 -83.8983 253° West 160 184 6,100 -53 Level Indianapolis Center
Wed 03:48:42 PM 40.1386 -83.9503 255° West 161 185 6,000  Descending Indianapolis Center
Wed 03:49:44 PM 40.1253 -84.0072 253° West 162 186 6,100  Climbing Indianapolis Center
Wed 03:50:46 PM 40.1089 -84.0619 249° West 162 186 6,000  Descending Indianapolis Center
Wed 03:51:59 PM 40.0694 -84.1225 230° Southwest 170 196 6,100  Climbing Indianapolis Center
Wed 03:52:50 PM 40.0483 -84.1603 234° Southwest 170 196 6,000 -295 Descending Indianapolis Center
Wed 03:54:01 PM 40.0092 -84.2236 231° Southwest 172 198 5,500 -581 Descending Indianapolis Center
Wed 03:54:54 PM 39.9756 -84.2511 212° Southwest 184 212 4,800 -1,043 Descending Indianapolis Center
Wed 03:55:56 PM 39.9203 -84.2836 204° Southwest 191 220 3,500 -1,306 Descending Indianapolis Center
Wed 03:56:58 PM 39.8875 -84.2783 173° South 133 153 2,100 -1,355 Descending Indianapolis Center
Wed 03:59:00 PM 39.9000 -84.2167 21° North  Level FlightAware Approximate

Login

Don't have an account? Register now (free) for customized features, flight alerts, and more!